Hauptseite
METAR-TAF:

METAR-TAF

Flughäfen :

La Paz, Bolivien

Flughafen El Alto

Breite: 16-31S, Länge: 068-11W, Höhe: 4058 m

Beobachtung

Neuester Wetterbericht von vor 56 Minuten, um 12:00 UTC
Wind 3 kt aus Nord/Nordost
Temperatur 3°C
Luftfeuchtigkeit 44%
Luftdruck 1038 hPa
Sichtweite 10 km oder mehr

METAR: SLLP 211200Z 02003KT 9999 NSC 03/M08 Q1038

Zeit: 08:56 (12:56 UTC)

Prognose

Neuester Wetterbericht von vor 2 Stunden und 16 Minuten, um 10:40 UTC
Gültige Prognose vom 21 um 12 UTC bis 22 um 12 UTC
Wind 5 kt aus Ost/Nordost
Sichtweite 10 km oder mehr
Zeitweise
vom 21 um 15 UTC bis 21 um 18 UTC
Wind 7 kt aus West/Südwest

TAF: SLLP 211040Z 2112/2212 06005KT 9999 NSC TX18/2120Z TNM04/2210Z TEMPO 2115/2118 25007KT

Wetterbeobachtungen und Prognosen von mehr als 4000 Flughäfen (METAR und TAF Bericht).

Die verfügbaren Stationen werden durch gelbe und rote Markierungen auf der Karte dargestellt.

Führen Sie die Maus auf sie, um den Namen der Station zu sehen.

Darauf klicken, um die Beobachtung von Wetterbeobachtungen und Prognosen zu sehen.

Um die Karte zu ändern : klicken Sie auf den grünen Tasten mit einem schwarzen Kreuz Zum Vergrößern, auf den grünen Button mit einem Gedankenstrich zu verkleinern, oder auf die grünen Pfeile für benachbarte Karten.


METAR-TAF: